createdAt,value
2023-02-09T00:02:41.556Z,7.70
2023-02-09T00:07:43.016Z,8.43
2023-02-09T00:13:02.988Z,8.60
2023-02-09T00:18:04.478Z,8.60
2023-02-09T00:23:05.945Z,9.20
2023-02-09T00:28:07.514Z,8.77
2023-02-09T00:33:09.082Z,8.10
2023-02-09T00:38:12.385Z,9.02
2023-02-09T00:43:13.837Z,8.68
2023-02-09T00:48:15.375Z,8.85
2023-02-09T00:53:16.916Z,9.77
2023-02-09T00:58:19.363Z,9.10
2023-02-09T01:03:20.914Z,8.52
2023-02-09T01:08:22.449Z,8.98
2023-02-09T01:13:24.181Z,9.55
2023-02-09T01:18:25.655Z,9.25
2023-02-09T01:23:27.175Z,9.98
2023-02-09T01:28:28.767Z,9.45
2023-02-09T01:33:31.242Z,9.75
2023-02-09T01:38:32.760Z,9.63
2023-02-09T01:43:55.335Z,9.82
2023-02-09T01:49:10.178Z,9.73
2023-02-09T01:54:16.833Z,9.82
2023-02-09T01:59:19.411Z,9.90
2023-02-09T02:04:22.119Z,10.25
2023-02-09T02:09:24.535Z,9.73
2023-02-09T02:14:33.422Z,9.23
2023-02-09T02:19:59.293Z,9.45
2023-02-09T02:25:28.073Z,10.20
2023-02-09T02:31:14.858Z,11.13
2023-02-09T02:36:31.710Z,11.07
2023-02-09T02:42:15.496Z,10.38
2023-02-09T02:47:20.572Z,11.43
2023-02-09T02:52:22.116Z,10.70
2023-02-09T02:57:28.149Z,10.73
2023-02-09T03:02:34.899Z,10.95
2023-02-09T03:07:36.449Z,11.57
2023-02-09T03:13:03.891Z,11.05
2023-02-09T03:18:32.968Z,10.45
2023-02-09T03:23:53.160Z,10.70
2023-02-09T03:28:57.507Z,10.80
2023-02-09T03:34:00.477Z,10.23
2023-02-09T03:39:02.708Z,10.63
2023-02-09T03:44:22.696Z,10.10
2023-02-09T03:49:26.392Z,10.60
2023-02-09T03:54:29.305Z,11.50
2023-02-09T03:59:30.953Z,11.07
2023-02-09T04:04:33.032Z,10.73
2023-02-09T04:09:35.036Z,10.82
2023-02-09T04:14:36.542Z,11.75
2023-02-09T04:19:38.054Z,10.65
2023-02-09T04:24:39.579Z,11.48
2023-02-09T04:29:41.056Z,11.25
2023-02-09T04:34:42.568Z,10.65
2023-02-09T04:39:44.082Z,11.30
2023-02-09T04:44:45.633Z,11.48
2023-02-09T04:49:47.149Z,10.57
2023-02-09T04:54:48.746Z,11.18
2023-02-09T04:59:50.314Z,10.88
2023-02-09T05:04:51.847Z,11.05
2023-02-09T05:09:53.418Z,11.40
2023-02-09T05:14:54.952Z,12.15
2023-02-09T05:19:56.416Z,12.27
2023-02-09T05:24:58.068Z,11.18
2023-02-09T05:29:59.593Z,11.88
2023-02-09T05:35:01.109Z,11.80
2023-02-09T05:40:03.172Z,12.10
2023-02-09T05:45:05.256Z,11.40
2023-02-09T05:50:06.841Z,11.40
2023-02-09T05:55:08.423Z,12.15
2023-02-09T06:00:12.455Z,12.25
2023-02-09T06:05:14.020Z,11.70
2023-02-09T06:10:17.007Z,11.75
2023-02-09T06:15:18.673Z,11.18
2023-02-09T06:20:20.332Z,12.00
2023-02-09T06:25:21.907Z,11.13
2023-02-09T06:30:23.430Z,11.40
2023-02-09T06:35:24.953Z,11.05
2023-02-09T06:40:26.503Z,11.45
2023-02-09T06:45:28.071Z,11.75
2023-02-09T06:50:29.585Z,10.35
2023-02-09T06:55:32.411Z,10.63
2023-02-09T07:00:33.979Z,11.32
2023-02-09T07:05:35.451Z,11.77
2023-02-09T07:10:36.982Z,11.23
2023-02-09T07:15:38.974Z,11.57
2023-02-09T07:20:40.494Z,12.18
2023-02-09T07:25:42.030Z,11.52
2023-02-09T07:30:43.793Z,10.52
2023-02-09T07:35:45.872Z,11.60
2023-02-09T07:40:47.544Z,10.95
2023-02-09T07:45:49.124Z,10.55
2023-02-09T07:50:51.360Z,11.45
2023-02-09T07:55:53.285Z,10.52
2023-02-09T08:00:54.802Z,10.88
2023-02-09T08:06:12.755Z,10.25
2023-02-09T08:11:15.558Z,11.52
2023-02-09T08:16:21.099Z,11.65
2023-02-09T08:21:22.734Z,11.52
2023-02-09T08:26:24.417Z,10.43
2023-02-09T08:31:26.042Z,11.25
2023-02-09T08:36:27.644Z,11.82
2023-02-09T08:41:29.144Z,10.80
2023-02-09T08:46:30.855Z,11.77
2023-02-09T08:51:32.456Z,11.85
2023-02-09T08:56:33.991Z,10.80
2023-02-09T09:01:35.578Z,11.32
2023-02-09T09:06:37.279Z,11.73
2023-02-09T09:11:38.992Z,10.70
2023-02-09T09:16:40.555Z,11.32
2023-02-09T09:21:42.099Z,11.32
2023-02-09T09:26:43.581Z,11.90
2023-02-09T09:31:45.065Z,11.45
2023-02-09T09:36:46.614Z,11.85
2023-02-09T09:41:51.736Z,11.50
2023-02-09T09:46:54.484Z,12.15
2023-02-09T09:52:23.995Z,12.05
2023-02-09T09:57:29.000Z,12.60
2023-02-09T10:02:32.912Z,13.02
2023-02-09T10:07:34.718Z,12.45
2023-02-09T10:12:44.121Z,12.73
2023-02-09T10:17:45.644Z,13.18
2023-02-09T10:22:51.536Z,13.00
2023-02-09T10:27:53.078Z,13.68
2023-02-09T10:32:59.996Z,14.27
2023-02-09T10:38:02.349Z,13.33
2023-02-09T10:43:06.965Z,14.80
2023-02-09T10:48:19.181Z,14.52
2023-02-09T10:53:38.883Z,15.02
2023-02-09T10:58:40.432Z,15.65
2023-02-09T11:04:04.236Z,14.90
2023-02-09T11:09:36.197Z,14.38
2023-02-09T11:14:37.705Z,15.57
2023-02-09T11:19:42.258Z,15.25
2023-02-09T11:25:13.554Z,14.70
2023-02-09T11:30:36.286Z,15.52
2023-02-09T11:36:02.311Z,15.68
2023-02-09T11:41:30.820Z,15.52
2023-02-09T11:46:34.173Z,14.75
2023-02-09T11:51:39.534Z,14.77
2023-02-09T11:56:45.117Z,15.85
2023-02-09T12:01:56.531Z,15.85
2023-02-09T12:07:06.208Z,15.55
2023-02-09T12:12:15.728Z,15.45
2023-02-09T12:17:42.553Z,16.67
2023-02-09T12:22:50.945Z,16.95
2023-02-09T12:28:04.760Z,16.95
2023-02-09T12:33:24.428Z,17.00
2023-02-09T12:38:40.942Z,18.15
2023-02-09T12:43:45.403Z,17.20
2023-02-09T12:48:59.850Z,17.55
2023-02-09T12:54:01.546Z,17.45
2023-02-09T12:59:14.429Z,18.60
2023-02-09T13:04:16.855Z,18.52
2023-02-09T13:09:36.453Z,19.05
2023-02-09T13:14:38.716Z,18.13
2023-02-09T13:20:07.014Z,19.90
2023-02-09T13:25:26.514Z,19.08
2023-02-09T13:30:31.152Z,20.10
2023-02-09T13:35:48.402Z,20.58
2023-02-09T13:40:50.856Z,20.13
2023-02-09T13:45:55.158Z,22.15
2023-02-09T13:51:00.044Z,23.33
2023-02-09T13:56:01.980Z,24.65
2023-02-09T14:01:07.829Z,23.83
2023-02-09T14:06:36.136Z,23.17
2023-02-09T14:11:43.385Z,24.38
2023-02-09T14:16:53.545Z,26.60
2023-02-09T14:21:55.601Z,25.65
2023-02-09T14:27:04.703Z,26.77
2023-02-09T14:32:33.501Z,25.38
2023-02-09T14:37:36.992Z,25.60
2023-02-09T14:43:01.163Z,25.90
2023-02-09T14:48:02.910Z,25.15
2023-02-09T14:53:11.793Z,26.75
2023-02-09T14:58:20.435Z,27.48
2023-02-09T15:03:22.573Z,27.88
2023-02-09T15:08:27.073Z,28.02
2023-02-09T15:13:30.354Z,28.52
2023-02-09T15:18:33.309Z,28.85
2023-02-09T15:23:34.817Z,28.70
2023-02-09T15:28:36.424Z,29.27
2023-02-09T15:33:37.971Z,28.83
2023-02-09T15:38:39.438Z,28.92
2023-02-09T15:43:59.259Z,29.48
2023-02-09T15:49:01.239Z,28.98
2023-02-09T15:54:15.959Z,30.33
2023-02-09T15:59:23.018Z,28.42
2023-02-09T16:04:24.509Z,27.73
2023-02-09T16:09:28.533Z,28.63
2023-02-09T16:14:31.657Z,29.25
2023-02-09T16:19:33.610Z,29.90
2023-02-09T16:24:46.018Z,29.05
2023-02-09T16:29:47.525Z,28.48
2023-02-09T16:34:50.400Z,28.42
2023-02-09T16:39:52.282Z,28.25
2023-02-09T16:44:53.835Z,29.58
2023-02-09T16:50:01.149Z,29.40
2023-02-09T16:55:06.925Z,29.58
2023-02-09T17:00:09.251Z,28.27
2023-02-09T17:05:27.386Z,28.48
2023-02-09T17:15:39.606Z,26.67
2023-02-09T17:20:47.760Z,28.77
2023-02-09T17:25:50.788Z,29.67
2023-02-09T17:30:59.641Z,27.33
2023-02-09T17:41:33.704Z,25.90
2023-02-09T17:46:35.692Z,27.45
2023-02-09T17:51:40.359Z,26.60
2023-02-09T17:56:42.437Z,24.80
2023-02-09T18:01:46.850Z,20.55
2023-02-09T18:06:48.947Z,19.77
2023-02-09T18:12:27.169Z,17.52
2023-02-09T18:17:29.426Z,17.23
2023-02-09T18:22:31.982Z,24.77
2023-02-09T18:27:33.528Z,59.75
2023-02-09T18:32:35.007Z,42.63
2023-02-09T18:37:36.574Z,21.23
2023-02-09T18:42:38.116Z,20.65
2023-02-09T18:47:40.455Z,14.98
2023-02-09T18:52:51.100Z,12.60
2023-02-09T18:57:52.760Z,17.67
2023-02-09T19:02:58.645Z,13.82
2023-02-09T19:08:01.263Z,15.25
2023-02-09T19:13:04.263Z,16.35
2023-02-09T19:18:05.878Z,16.02
2023-02-09T19:23:09.305Z,13.07
2023-02-09T19:28:11.364Z,20.17
2023-02-09T19:33:13.159Z,12.77
2023-02-09T19:38:14.683Z,10.73
2023-02-09T19:43:16.346Z,11.65
2023-02-09T19:48:17.845Z,11.07
2023-02-09T19:53:19.385Z,9.40
2023-02-09T19:58:21.750Z,7.97
2023-02-09T20:03:24.082Z,36.53
2023-02-09T20:08:25.692Z,36.55
2023-02-09T20:13:27.227Z,19.92
2023-02-09T20:18:28.857Z,9.90
2023-02-09T20:23:30.368Z,9.70
2023-02-09T20:28:31.929Z,11.20
2023-02-09T20:33:34.848Z,9.15
2023-02-09T20:38:37.415Z,42.95
2023-02-09T20:43:58.586Z,18.95
2023-02-09T20:49:00.123Z,16.35
2023-02-09T20:54:01.784Z,10.68
2023-02-09T20:59:05.065Z,9.68
2023-02-09T21:04:07.493Z,9.07
2023-02-09T21:09:12.344Z,10.73
2023-02-09T21:14:22.015Z,9.20
2023-02-09T21:19:34.617Z,10.32
2023-02-09T21:24:39.255Z,7.55
2023-02-09T21:29:40.841Z,6.90
2023-02-09T21:34:42.862Z,8.05
2023-02-09T21:39:44.404Z,9.00
2023-02-09T21:44:45.913Z,8.00
2023-02-09T21:49:48.482Z,8.80
2023-02-09T21:54:50.568Z,6.70
2023-02-09T21:59:52.522Z,6.22
2023-02-09T22:04:54.136Z,6.05
2023-02-09T22:09:55.679Z,6.20
2023-02-09T22:14:57.222Z,7.20
2023-02-09T22:19:58.742Z,5.57
2023-02-09T22:25:00.317Z,6.90
2023-02-09T22:30:02.034Z,7.57
2023-02-09T22:35:03.829Z,6.68
2023-02-09T22:40:05.530Z,6.20
2023-02-09T22:45:07.366Z,5.80
2023-02-09T22:50:09.086Z,6.40
2023-02-09T22:55:10.662Z,6.78
2023-02-09T23:00:15.124Z,6.03
2023-02-09T23:05:16.720Z,5.50
2023-02-09T23:10:18.502Z,6.18
2023-02-09T23:15:20.878Z,5.72
2023-02-09T23:20:22.440Z,5.63
2023-02-09T23:25:24.367Z,5.07
2023-02-09T23:30:25.902Z,5.38
2023-02-09T23:35:27.392Z,4.78
2023-02-09T23:40:30.275Z,5.95
2023-02-09T23:45:31.828Z,5.20
2023-02-09T23:50:34.638Z,4.45
2023-02-09T23:55:36.111Z,5.75
